createdAt,value
2018-08-25T00:00:05.489Z,98692.00
2018-08-25T00:02:09.159Z,98696.00
2018-08-25T00:04:13.260Z,98704.00
2018-08-25T00:06:17.521Z,98703.00
2018-08-25T00:08:21.070Z,98700.00
2018-08-25T00:10:25.524Z,98690.00
2018-08-25T00:12:30.363Z,98696.00
2018-08-25T00:14:33.919Z,98688.00
2018-08-25T00:16:38.480Z,98695.00
2018-08-25T00:18:43.117Z,98699.00
2018-08-25T00:20:48.612Z,98699.00
2018-08-25T00:22:55.901Z,98699.00
2018-08-25T00:25:03.359Z,98707.00
2018-08-25T00:27:07.872Z,98696.00
2018-08-25T00:29:11.676Z,98691.00
2018-08-25T00:31:22.293Z,98688.00
2018-08-25T00:33:25.928Z,98678.00
2018-08-25T00:35:29.795Z,98683.00
2018-08-25T00:37:35.030Z,98677.00
2018-08-25T00:39:38.623Z,98686.00
2018-08-25T00:41:42.500Z,98682.00
2018-08-25T00:43:46.157Z,98680.00
2018-08-25T00:45:50.679Z,98680.00
2018-08-25T00:47:58.760Z,98679.00
2018-08-25T00:50:03.876Z,98680.00
2018-08-25T00:52:09.993Z,98672.00
2018-08-25T00:54:13.928Z,98667.00
2018-08-25T00:56:17.841Z,98663.00
2018-08-25T00:58:21.632Z,98669.00
2018-08-25T01:00:25.580Z,98662.00
2018-08-25T01:02:29.212Z,98663.00
2018-08-25T01:04:33.081Z,98659.00
2018-08-25T01:06:37.236Z,98654.00
2018-08-25T01:08:40.980Z,98656.00
2018-08-25T01:10:44.734Z,98664.00
2018-08-25T01:12:48.668Z,98660.00
2018-08-25T01:14:52.229Z,98671.00
2018-08-25T01:16:58.380Z,98667.00
2018-08-25T01:19:05.379Z,98659.00
2018-08-25T01:21:10.919Z,98660.00
2018-08-25T01:23:16.804Z,98657.00
2018-08-25T01:25:20.261Z,98661.00
2018-08-25T01:27:23.921Z,98654.00
2018-08-25T01:29:27.656Z,98663.00
2018-08-25T01:31:31.879Z,98656.00
2018-08-25T01:33:35.548Z,98656.00
2018-08-25T01:35:39.037Z,98651.00
2018-08-25T01:37:42.920Z,98651.00
2018-08-25T01:39:48.749Z,98638.00
2018-08-25T01:41:52.384Z,98639.00
2018-08-25T01:46:20.241Z,98624.00
2018-08-25T01:48:23.964Z,98620.00
2018-08-25T01:50:27.861Z,98625.00
2018-08-25T01:52:32.131Z,98625.00
2018-08-25T01:54:35.680Z,98629.00
2018-08-25T01:56:39.857Z,98623.00
2018-08-25T01:58:44.264Z,98618.00
2018-08-25T02:00:48.042Z,98610.00
2018-08-25T02:02:52.322Z,98599.00
2018-08-25T02:04:56.942Z,98596.00
2018-08-25T02:07:00.832Z,98593.00
2018-08-25T02:09:09.635Z,98590.00
2018-08-25T02:11:17.288Z,98594.00
2018-08-25T02:13:23.983Z,98593.00
2018-08-25T02:16:52.595Z,98593.00
2018-08-25T02:18:57.029Z,98590.00
2018-08-25T02:21:01.182Z,98591.00
2018-08-25T02:23:06.135Z,98589.00
2018-08-25T02:25:14.801Z,98590.00
2018-08-25T02:27:22.488Z,98592.00
2018-08-25T02:29:29.395Z,98590.00
2018-08-25T02:31:33.358Z,98592.00
2018-08-25T02:33:37.213Z,98585.00
2018-08-25T02:35:41.834Z,98589.00
2018-08-25T02:37:45.597Z,98593.00
2018-08-25T02:39:49.834Z,98595.00
2018-08-25T02:41:54.218Z,98593.00
2018-08-25T02:43:57.913Z,98586.00
2018-08-25T02:46:01.614Z,98583.00
2018-08-25T02:48:05.784Z,98582.00
2018-08-25T02:50:09.942Z,98586.00
2018-08-25T02:52:17.896Z,98581.00
2018-08-25T02:54:27.438Z,98585.00
2018-08-25T02:56:31.863Z,98575.00
2018-08-25T02:58:35.384Z,98571.00
2018-08-25T03:00:39.558Z,98564.00
2018-08-25T03:02:44.915Z,98562.00
2018-08-25T03:04:49.624Z,98556.00
2018-08-25T03:06:55.849Z,98561.00
2018-08-25T03:09:01.085Z,98558.00
2018-08-25T03:11:05.918Z,98551.00
2018-08-25T03:13:10.518Z,98552.00
2018-08-25T03:15:14.325Z,98549.00
2018-08-25T03:17:17.768Z,98549.00
2018-08-25T03:19:21.755Z,98556.00
2018-08-25T03:21:26.225Z,98553.00
2018-08-25T03:23:30.351Z,98550.00
2018-08-25T03:25:34.895Z,98556.00
2018-08-25T03:27:39.387Z,98552.00
2018-08-25T03:29:43.321Z,98557.00
2018-08-25T03:31:48.719Z,98549.00
2018-08-25T03:33:56.380Z,98548.00
2018-08-25T03:36:04.655Z,98545.00
2018-08-25T03:38:10.074Z,98554.00
2018-08-25T03:40:13.928Z,98559.00
2018-08-25T03:42:18.154Z,98557.00
2018-08-25T03:44:22.286Z,98553.00
2018-08-25T03:46:28.034Z,98560.00
2018-08-25T03:48:31.966Z,98565.00
2018-08-25T03:50:35.722Z,98558.00
2018-08-25T03:52:39.419Z,98566.00
2018-08-25T03:54:43.380Z,98573.00
2018-08-25T03:56:46.942Z,98575.00
2018-08-25T03:58:51.500Z,98570.00
2018-08-25T04:01:01.471Z,98573.00
2018-08-25T04:03:07.648Z,98575.00
2018-08-25T04:05:12.448Z,98571.00
2018-08-25T04:07:16.412Z,98569.00
2018-08-25T04:09:20.379Z,98566.00
2018-08-25T04:13:34.752Z,98560.00
2018-08-25T04:15:41.469Z,98559.00
2018-08-25T04:17:45.032Z,98568.00
2018-08-25T04:19:49.783Z,98562.00
2018-08-25T04:21:53.373Z,98572.00
2018-08-25T04:24:00.009Z,98563.00
2018-08-25T04:26:06.839Z,98559.00
2018-08-25T04:28:11.431Z,98569.00
2018-08-25T04:30:19.375Z,98566.00
2018-08-25T04:32:23.752Z,98573.00
2018-08-25T04:34:27.368Z,98566.00
2018-08-25T04:36:31.083Z,98567.00
2018-08-25T04:38:35.053Z,98572.00
2018-08-25T04:40:38.834Z,98574.00
2018-08-25T04:42:42.589Z,98570.00
2018-08-25T04:44:46.155Z,98576.00
2018-08-25T04:46:50.089Z,98576.00
2018-08-25T04:48:53.827Z,98574.00
2018-08-25T04:50:57.612Z,98577.00
2018-08-25T04:53:02.624Z,98571.00
2018-08-25T04:55:10.823Z,98567.00
2018-08-25T04:57:20.309Z,98572.00
2018-08-25T04:59:24.408Z,98566.00
2018-08-25T05:01:28.160Z,98563.00
2018-08-25T05:03:32.110Z,98573.00
2018-08-25T05:05:36.031Z,98565.00
2018-08-25T05:07:40.045Z,98567.00
2018-08-25T05:09:43.648Z,98566.00
2018-08-25T05:11:48.015Z,98574.00
2018-08-25T05:13:51.749Z,98573.00
2018-08-25T05:15:55.441Z,98574.00
2018-08-25T05:17:59.422Z,98575.00
2018-08-25T05:20:03.175Z,98575.00
2018-08-25T05:22:11.131Z,98568.00
2018-08-25T05:24:16.792Z,98570.00
2018-08-25T05:26:22.931Z,98568.00
2018-08-25T05:28:27.745Z,98561.00
2018-08-25T05:30:31.958Z,98563.00
2018-08-25T05:32:35.626Z,98556.00
2018-08-25T05:34:39.531Z,98556.00
2018-08-25T05:36:43.533Z,98563.00
2018-08-25T05:38:47.511Z,98553.00
2018-08-25T05:40:51.005Z,98549.00
2018-08-25T05:42:55.508Z,98549.00
2018-08-25T05:44:59.207Z,98545.00
2018-08-25T05:47:02.746Z,98537.00
2018-08-25T05:49:07.054Z,98540.00
2018-08-25T05:51:10.850Z,98543.00
2018-08-25T05:53:18.398Z,98543.00
2018-08-25T05:55:25.474Z,98544.00
2018-08-25T05:57:31.096Z,98552.00
2018-08-25T05:59:35.497Z,98556.00
2018-08-25T06:01:39.923Z,98554.00
2018-08-25T06:03:44.183Z,98554.00
2018-08-25T06:05:48.432Z,98552.00
2018-08-25T06:07:58.142Z,98556.00
2018-08-25T06:10:03.974Z,98549.00
2018-08-25T06:12:08.844Z,98552.00
2018-08-25T06:14:14.844Z,98556.00
2018-08-25T06:16:18.601Z,98550.00
2018-08-25T06:18:22.197Z,98552.00
2018-08-25T06:20:26.774Z,98542.00
2018-08-25T06:22:30.333Z,98539.00
2018-08-25T06:24:35.557Z,98541.00
2018-08-25T06:26:39.069Z,98542.00
2018-08-25T06:28:42.740Z,98542.00
2018-08-25T06:30:46.296Z,98541.00
2018-08-25T06:32:51.638Z,98544.00
2018-08-25T06:34:59.844Z,98532.00
2018-08-25T06:37:04.474Z,98531.00
2018-08-25T06:39:11.520Z,98531.00
2018-08-25T06:41:15.792Z,98529.00
2018-08-25T06:43:20.350Z,98530.00
2018-08-25T06:45:25.098Z,98534.00
2018-08-25T06:47:29.086Z,98531.00
2018-08-25T06:49:35.032Z,98527.00
2018-08-25T06:51:40.667Z,98529.00
2018-08-25T06:53:53.143Z,98527.00
2018-08-25T06:56:00.303Z,98529.00
2018-08-25T06:58:11.244Z,98528.00
2018-08-25T07:00:15.420Z,98524.00
2018-08-25T07:02:19.798Z,98518.00
2018-08-25T07:04:23.727Z,98521.00
2018-08-25T07:06:27.943Z,98525.00
2018-08-25T07:08:33.209Z,98521.00
2018-08-25T07:10:37.161Z,98532.00
2018-08-25T07:12:44.828Z,98527.00
2018-08-25T07:14:51.974Z,98522.00
2018-08-25T07:16:58.464Z,98521.00
2018-08-25T07:19:06.461Z,98526.00
2018-08-25T07:21:14.695Z,98531.00
2018-08-25T07:23:19.217Z,98526.00
2018-08-25T07:25:23.010Z,98552.00
2018-08-25T07:27:27.434Z,98535.00
2018-08-25T07:29:32.513Z,98536.00
2018-08-25T07:31:36.924Z,98538.00
2018-08-25T07:33:42.250Z,98524.00
2018-08-25T07:35:46.202Z,98553.00
2018-08-25T07:37:49.934Z,98525.00
2018-08-25T07:39:54.805Z,98519.00
2018-08-25T07:41:58.834Z,98535.00
2018-08-25T07:44:05.574Z,98536.00
2018-08-25T07:46:12.850Z,98537.00
2018-08-25T07:48:20.414Z,98541.00
2018-08-25T07:50:28.575Z,98551.00
2018-08-25T07:52:34.507Z,98544.00
2018-08-25T07:54:38.828Z,98560.00
2018-08-25T07:56:42.776Z,98546.00
2018-08-25T07:58:46.732Z,98543.00
2018-08-25T08:00:54.230Z,98562.00
2018-08-25T08:02:57.860Z,98553.00
2018-08-25T08:05:01.652Z,98553.00
2018-08-25T08:07:05.790Z,98530.00
2018-08-25T08:09:14.387Z,98544.00
2018-08-25T08:11:20.311Z,98532.00
2018-08-25T08:13:28.489Z,98541.00
2018-08-25T08:15:32.205Z,98522.00
2018-08-25T08:17:35.841Z,98533.00
2018-08-25T08:19:40.398Z,98540.00
2018-08-25T08:21:43.985Z,98537.00
2018-08-25T08:23:48.142Z,98549.00
2018-08-25T08:25:54.484Z,98554.00
2018-08-25T08:30:21.083Z,98529.00
2018-08-25T08:32:34.460Z,98537.00
2018-08-25T08:34:39.624Z,98538.00
2018-08-25T08:36:43.607Z,98533.00
2018-08-25T08:38:49.286Z,98547.00
2018-08-25T08:40:55.989Z,98524.00
2018-08-25T08:43:01.803Z,98522.00
2018-08-25T08:45:12.028Z,98530.00
2018-08-25T08:47:22.448Z,98519.00
2018-08-25T08:49:28.498Z,98534.00
2018-08-25T08:51:39.662Z,98517.00
2018-08-25T08:53:47.899Z,98522.00
2018-08-25T08:55:51.906Z,98532.00
2018-08-25T08:57:56.503Z,98521.00
2018-08-25T09:03:09.207Z,98547.00
2018-08-25T09:05:13.213Z,98552.00
2018-08-25T09:07:26.351Z,98537.00
2018-08-25T09:09:33.368Z,98544.00
2018-08-25T09:11:41.653Z,98555.00
2018-08-25T09:13:47.893Z,98560.00
2018-08-25T09:15:56.394Z,98574.00
2018-08-25T09:18:02.363Z,98593.00
2018-08-25T09:20:07.504Z,98558.00
2018-08-25T09:22:11.528Z,98583.00
2018-08-25T09:24:15.521Z,98561.00
2018-08-25T09:26:19.102Z,98549.00
2018-08-25T09:28:22.672Z,98570.00
2018-08-25T09:30:26.572Z,98567.00
2018-08-25T09:32:31.134Z,98564.00
2018-08-25T09:34:37.327Z,98565.00
2018-08-25T09:36:41.318Z,98538.00
2018-08-25T09:38:44.843Z,98565.00
2018-08-25T09:40:49.157Z,98578.00
2018-08-25T09:42:54.854Z,98559.00
2018-08-25T09:45:03.104Z,98560.00
2018-08-25T09:47:09.602Z,98569.00
2018-08-25T09:49:16.949Z,98595.00
2018-08-25T09:51:20.734Z,98563.00
2018-08-25T09:53:24.717Z,98557.00
2018-08-25T09:55:29.024Z,98583.00
2018-08-25T09:57:32.513Z,98578.00
2018-08-25T09:59:36.083Z,98569.00
2018-08-25T10:02:12.420Z,98585.00
2018-08-25T10:04:16.535Z,98578.00
2018-08-25T10:06:20.382Z,98572.00
2018-08-25T10:08:24.419Z,98568.00
2018-08-25T10:10:29.190Z,98572.00
2018-08-25T10:12:33.055Z,98551.00
2018-08-25T10:14:38.159Z,98580.00
2018-08-25T10:16:43.937Z,98560.00
2018-08-25T10:18:49.569Z,98557.00
2018-08-25T10:21:00.065Z,98569.00
2018-08-25T10:23:07.805Z,98580.00
2018-08-25T10:25:11.962Z,98587.00
2018-08-25T10:27:18.386Z,98565.00
2018-08-25T10:29:23.528Z,98589.00
2018-08-25T10:31:27.472Z,98618.00
2018-08-25T10:33:31.587Z,98613.00
2018-08-25T10:35:35.695Z,98600.00
2018-08-25T10:37:39.817Z,98590.00
2018-08-25T10:39:43.823Z,98592.00
2018-08-25T10:41:47.684Z,98607.00
2018-08-25T10:43:51.550Z,98613.00
2018-08-25T10:45:55.681Z,98591.00
2018-08-25T10:47:59.879Z,98616.00
2018-08-25T10:50:03.840Z,98579.00
2018-08-25T10:52:12.221Z,98585.00
2018-08-25T10:54:17.849Z,98600.00
2018-08-25T10:56:23.192Z,98594.00
2018-08-25T10:58:27.144Z,98591.00
2018-08-25T11:00:32.570Z,98619.00
2018-08-25T11:02:36.177Z,98602.00
2018-08-25T11:04:40.256Z,98586.00
2018-08-25T11:06:43.849Z,98582.00
2018-08-25T11:08:47.466Z,98610.00
2018-08-25T11:10:52.339Z,98580.00
2018-08-25T11:12:55.961Z,98606.00
2018-08-25T11:14:59.828Z,98579.00
2018-08-25T11:17:03.479Z,98586.00
2018-08-25T11:19:07.395Z,98570.00
2018-08-25T11:21:15.087Z,98594.00
2018-08-25T11:23:20.680Z,98586.00
2018-08-25T11:27:37.418Z,98601.00
2018-08-25T11:29:41.770Z,98592.00
2018-08-25T11:31:45.457Z,98579.00
2018-08-25T11:33:49.121Z,98593.00
2018-08-25T11:35:53.130Z,98598.00
2018-08-25T11:37:56.722Z,98579.00
2018-08-25T11:40:00.345Z,98597.00
2018-08-25T11:42:04.148Z,98587.00
2018-08-25T11:44:07.791Z,98581.00
2018-08-25T11:46:12.059Z,98602.00
2018-08-25T11:48:22.425Z,98599.00
2018-08-25T11:50:30.820Z,98593.00
2018-08-25T11:52:36.308Z,98602.00
2018-08-25T11:54:41.149Z,98586.00
2018-08-25T11:56:44.701Z,98591.00
2018-08-25T11:58:48.408Z,98571.00
2018-08-25T12:00:53.478Z,98583.00
2018-08-25T12:02:57.440Z,98599.00
2018-08-25T12:05:01.841Z,98596.00
2018-08-25T12:07:10.319Z,98590.00
2018-08-25T12:09:14.433Z,98596.00
2018-08-25T12:11:20.164Z,98576.00
2018-08-25T12:13:27.210Z,98604.00
2018-08-25T12:15:32.711Z,98579.00
2018-08-25T12:17:38.319Z,98587.00
2018-08-25T12:19:42.776Z,98561.00
2018-08-25T12:21:47.779Z,98554.00
2018-08-25T12:23:58.325Z,98580.00
2018-08-25T12:26:05.959Z,98608.00
2018-08-25T12:28:10.909Z,98586.00
2018-08-25T12:30:15.267Z,98576.00
2018-08-25T12:32:18.848Z,98560.00
2018-08-25T12:34:22.458Z,98575.00
2018-08-25T12:36:26.175Z,98561.00
2018-08-25T12:38:30.296Z,98597.00
2018-08-25T12:40:35.807Z,98557.00
2018-08-25T12:42:39.733Z,98580.00
2018-08-25T12:44:44.522Z,98585.00
2018-08-25T12:46:48.160Z,98562.00
2018-08-25T12:48:51.820Z,98565.00
2018-08-25T12:50:55.720Z,98557.00
2018-08-25T12:53:02.419Z,98559.00
2018-08-25T12:55:11.021Z,98556.00
2018-08-25T12:57:17.737Z,98579.00
2018-08-25T12:59:21.512Z,98534.00
2018-08-25T13:01:25.569Z,98591.00
2018-08-25T13:03:29.921Z,98565.00
2018-08-25T13:05:34.003Z,98574.00
2018-08-25T13:07:37.684Z,98541.00
2018-08-25T13:09:41.988Z,98548.00
2018-08-25T13:11:45.690Z,98555.00
2018-08-25T13:13:49.174Z,98541.00
2018-08-25T13:15:53.016Z,98547.00
2018-08-25T13:17:56.707Z,98560.00
2018-08-25T13:20:03.393Z,98551.00
2018-08-25T13:22:10.801Z,98545.00
2018-08-25T13:26:23.848Z,98552.00
2018-08-25T13:28:28.954Z,98548.00
2018-08-25T13:30:32.693Z,98562.00
2018-08-25T13:32:37.133Z,98556.00
2018-08-25T13:34:41.180Z,98559.00
2018-08-25T13:36:44.957Z,98588.00
2018-08-25T13:38:49.684Z,98588.00
2018-08-25T13:40:58.673Z,98580.00
2018-08-25T13:43:16.261Z,98580.00
2018-08-25T13:45:23.938Z,98592.00
2018-08-25T13:47:29.405Z,98579.00
2018-08-25T13:49:33.257Z,98554.00
2018-08-25T13:51:36.760Z,98564.00
2018-08-25T13:53:40.827Z,98558.00
2018-08-25T13:55:44.565Z,98580.00
2018-08-25T13:57:48.310Z,98572.00
2018-08-25T13:59:52.389Z,98565.00
2018-08-25T14:01:56.213Z,98606.00
2018-08-25T14:04:04.795Z,98574.00
2018-08-25T14:06:17.095Z,98604.00
2018-08-25T14:08:23.042Z,98609.00
2018-08-25T14:10:28.178Z,98589.00
2018-08-25T14:12:32.060Z,98604.00
2018-08-25T14:14:36.570Z,98614.00
2018-08-25T14:16:40.446Z,98603.00
2018-08-25T14:18:47.986Z,98600.00
2018-08-25T14:20:51.549Z,98625.00
2018-08-25T14:22:55.296Z,98606.00
2018-08-25T14:24:59.636Z,98633.00
2018-08-25T14:27:03.482Z,98623.00
2018-08-25T14:29:07.220Z,98620.00
2018-08-25T14:31:14.766Z,98622.00
2018-08-25T14:35:35.558Z,98599.00
2018-08-25T14:37:39.513Z,98635.00
2018-08-25T14:39:43.335Z,98612.00
2018-08-25T14:41:47.058Z,98670.00
2018-08-25T14:43:55.150Z,98644.00
2018-08-25T14:45:58.964Z,98609.00
2018-08-25T14:48:02.654Z,98603.00
2018-08-25T14:50:06.569Z,98614.00
2018-08-25T14:52:10.059Z,98669.00
2018-08-25T14:54:14.627Z,98627.00
2018-08-25T14:56:23.068Z,98624.00
2018-08-25T14:58:30.900Z,98618.00
2018-08-25T15:00:38.093Z,98614.00
2018-08-25T15:02:41.912Z,98651.00
2018-08-25T15:04:45.397Z,98627.00
2018-08-25T15:06:49.196Z,98648.00
2018-08-25T15:08:52.970Z,98634.00
2018-08-25T15:10:56.827Z,98626.00
2018-08-25T15:13:00.506Z,98665.00
2018-08-25T15:15:04.580Z,98635.00
2018-08-25T15:17:08.220Z,98641.00
2018-08-25T15:19:12.421Z,98643.00
2018-08-25T15:21:16.317Z,98655.00
2018-08-25T15:23:20.109Z,98656.00
2018-08-25T15:25:23.675Z,98640.00
2018-08-25T15:27:28.144Z,98665.00
2018-08-25T15:29:31.737Z,98651.00
2018-08-25T15:31:35.662Z,98658.00
2018-08-25T15:33:39.261Z,98680.00
2018-08-25T15:35:42.981Z,98659.00
2018-08-25T15:37:46.652Z,98647.00
2018-08-25T15:39:50.790Z,98655.00
2018-08-25T15:42:01.964Z,98656.00
2018-08-25T15:44:08.485Z,98670.00
2018-08-25T15:46:12.866Z,98671.00
2018-08-25T15:48:16.437Z,98671.00
2018-08-25T15:50:19.959Z,98666.00
2018-08-25T15:52:23.809Z,98679.00
2018-08-25T15:54:27.782Z,98656.00
2018-08-25T15:56:31.267Z,98662.00
2018-08-25T15:58:38.653Z,98664.00
2018-08-25T16:00:42.174Z,98669.00
2018-08-25T16:02:45.851Z,98663.00
2018-08-25T16:04:49.736Z,98668.00
2018-08-25T16:06:53.233Z,98665.00
2018-08-25T16:08:57.920Z,98677.00
2018-08-25T16:11:02.303Z,98688.00
2018-08-25T16:13:07.992Z,98675.00
2018-08-25T16:15:15.945Z,98671.00
2018-08-25T16:17:20.183Z,98688.00
2018-08-25T16:19:24.250Z,98668.00
2018-08-25T16:21:27.955Z,98697.00
2018-08-25T16:23:31.554Z,98669.00
2018-08-25T16:25:35.409Z,98669.00
2018-08-25T16:27:39.136Z,98677.00
2018-08-25T16:29:43.455Z,98664.00
2018-08-25T16:31:47.003Z,98657.00
2018-08-25T16:33:51.151Z,98662.00
2018-08-25T16:35:54.908Z,98665.00
2018-08-25T16:37:58.456Z,98671.00
2018-08-25T16:40:04.040Z,98665.00
2018-08-25T16:42:12.479Z,98652.00
2018-08-25T16:44:17.384Z,98661.00
2018-08-25T16:46:23.027Z,98662.00
2018-08-25T16:48:27.301Z,98655.00
2018-08-25T16:50:30.849Z,98654.00
2018-08-25T16:52:34.655Z,98650.00
2018-08-25T16:54:38.683Z,98658.00
2018-08-25T16:56:42.191Z,98662.00
2018-08-25T16:58:45.827Z,98660.00
2018-08-25T17:00:49.553Z,98657.00
2018-08-25T17:02:53.089Z,98659.00
2018-08-25T17:04:56.726Z,98660.00
2018-08-25T17:07:00.669Z,98665.00
2018-08-25T17:09:06.373Z,98658.00
2018-08-25T17:11:13.422Z,98660.00
2018-08-25T17:13:21.078Z,98667.00
2018-08-25T17:15:26.456Z,98664.00
2018-08-25T17:17:30.013Z,98665.00
2018-08-25T17:19:33.641Z,98677.00
2018-08-25T17:21:37.136Z,98676.00
2018-08-25T17:23:40.862Z,98674.00
2018-08-25T17:25:44.712Z,98678.00
2018-08-25T17:27:48.603Z,98687.00
2018-08-25T17:29:52.353Z,98680.00
2018-08-25T17:31:56.913Z,98686.00
2018-08-25T17:34:00.745Z,98680.00
2018-08-25T17:36:04.956Z,98690.00
2018-08-25T17:38:09.003Z,98680.00
2018-08-25T17:40:15.268Z,98692.00
2018-08-25T17:42:22.931Z,98685.00
2018-08-25T17:44:28.498Z,98686.00
2018-08-25T17:46:32.900Z,98687.00
2018-08-25T17:48:36.568Z,98688.00
2018-08-25T17:50:40.408Z,98693.00
2018-08-25T17:52:44.131Z,98693.00
2018-08-25T17:54:47.666Z,98696.00
2018-08-25T17:56:52.112Z,98693.00
2018-08-25T17:58:55.817Z,98707.00
2018-08-25T18:00:59.436Z,98702.00
2018-08-25T18:03:03.691Z,98707.00
2018-08-25T18:05:07.744Z,98707.00
2018-08-25T18:07:11.988Z,98725.00
2018-08-25T18:09:16.420Z,98730.00
2018-08-25T18:11:24.893Z,98724.00
2018-08-25T18:13:31.993Z,98745.00
2018-08-25T18:15:38.335Z,98768.00
2018-08-25T18:17:42.230Z,98765.00
2018-08-25T18:19:46.262Z,98764.00
2018-08-25T18:21:50.164Z,98764.00
2018-08-25T18:23:53.692Z,98744.00
2018-08-25T18:25:57.738Z,98747.00
2018-08-25T18:28:05.017Z,98748.00
2018-08-25T18:30:13.025Z,98745.00
2018-08-25T18:32:17.073Z,98756.00
2018-08-25T18:34:21.464Z,98755.00
2018-08-25T18:36:25.087Z,98757.00
2018-08-25T18:38:28.785Z,98752.00
2018-08-25T18:40:33.488Z,98755.00
2018-08-25T18:42:37.263Z,98756.00
2018-08-25T18:44:41.164Z,98761.00
2018-08-25T18:46:46.723Z,98768.00
2018-08-25T18:48:50.404Z,98769.00
2018-08-25T18:50:55.166Z,98777.00
2018-08-25T18:53:03.156Z,98790.00
2018-08-25T18:55:12.874Z,98795.00
2018-08-25T18:57:17.035Z,98793.00
2018-08-25T18:59:22.478Z,98794.00
2018-08-25T19:01:26.540Z,98806.00
2018-08-25T19:03:30.321Z,98813.00
2018-08-25T19:05:36.206Z,98818.00
2018-08-25T19:07:39.883Z,98826.00
2018-08-25T19:09:43.640Z,98822.00
2018-08-25T19:11:47.758Z,98820.00
2018-08-25T19:13:51.378Z,98828.00
2018-08-25T19:15:55.098Z,98825.00
2018-08-25T19:18:01.280Z,98826.00
2018-08-25T19:20:09.864Z,98830.00
2018-08-25T19:22:19.961Z,98834.00
2018-08-25T19:24:24.216Z,98837.00
2018-08-25T19:26:28.089Z,98840.00
2018-08-25T19:28:32.060Z,98841.00
2018-08-25T19:30:36.128Z,98855.00
2018-08-25T19:32:39.653Z,98843.00
2018-08-25T19:34:43.163Z,98844.00
2018-08-25T19:36:47.354Z,98844.00
2018-08-25T19:38:51.246Z,98848.00
2018-08-25T19:40:54.861Z,98859.00
2018-08-25T19:42:58.986Z,98857.00
2018-08-25T19:45:02.800Z,98860.00
2018-08-25T19:47:09.907Z,98864.00
2018-08-25T19:49:17.317Z,98872.00
2018-08-25T19:51:23.288Z,98867.00
2018-08-25T19:53:28.149Z,98873.00
2018-08-25T19:55:31.662Z,98862.00
2018-08-25T19:57:35.911Z,98858.00
2018-08-25T19:59:39.574Z,98857.00
2018-08-25T20:01:43.812Z,98855.00
2018-08-25T20:03:47.653Z,98859.00
2018-08-25T20:05:51.343Z,98854.00
2018-08-25T20:07:55.505Z,98858.00
2018-08-25T20:09:59.199Z,98852.00
2018-08-25T20:12:02.972Z,98856.00
2018-08-25T20:14:07.006Z,98861.00
2018-08-25T20:16:14.981Z,98861.00
2018-08-25T20:18:21.043Z,98874.00
2018-08-25T20:20:30.563Z,98877.00
2018-08-25T20:22:34.327Z,98877.00
2018-08-25T20:24:38.531Z,98878.00
2018-08-25T20:26:43.899Z,98884.00
2018-08-25T20:28:49.900Z,98889.00
2018-08-25T20:30:53.472Z,98892.00
2018-08-25T20:32:57.409Z,98893.00
2018-08-25T20:35:01.318Z,98902.00
2018-08-25T20:37:10.039Z,98903.00
2018-08-25T20:39:23.143Z,98913.00
2018-08-25T20:41:31.441Z,98916.00
2018-08-25T20:43:36.155Z,98919.00
2018-08-25T20:45:39.884Z,98925.00
2018-08-25T20:47:43.877Z,98925.00
2018-08-25T20:49:47.539Z,98930.00
2018-08-25T20:51:52.343Z,98931.00
2018-08-25T20:53:56.124Z,98940.00
2018-08-25T20:56:00.648Z,98939.00
2018-08-25T20:58:05.353Z,98955.00
2018-08-25T21:00:08.944Z,98943.00
2018-08-25T21:02:13.486Z,98950.00
2018-08-25T21:04:18.852Z,98947.00
2018-08-25T21:06:27.414Z,98954.00
2018-08-25T21:08:34.881Z,98945.00
2018-08-25T21:10:39.536Z,98947.00
2018-08-25T21:12:44.924Z,98942.00
2018-08-25T21:14:48.967Z,98935.00
2018-08-25T21:16:52.727Z,98945.00
2018-08-25T21:18:56.405Z,98945.00
2018-08-25T21:21:08.948Z,98948.00
2018-08-25T21:23:13.835Z,98950.00
2018-08-25T21:25:17.975Z,98950.00
2018-08-25T21:27:22.389Z,98952.00
2018-08-25T21:29:30.456Z,98954.00
2018-08-25T21:31:34.289Z,98954.00
2018-08-25T21:33:38.072Z,98965.00
2018-08-25T21:35:42.106Z,98954.00
2018-08-25T21:37:45.607Z,98960.00
2018-08-25T21:39:54.005Z,98970.00
2018-08-25T21:42:02.336Z,98969.00
2018-08-25T21:44:10.694Z,98961.00
2018-08-25T21:46:16.046Z,98971.00
2018-08-25T21:48:20.229Z,98978.00
2018-08-25T21:50:23.878Z,98974.00
2018-08-25T21:52:27.610Z,98971.00
2018-08-25T21:54:31.443Z,98970.00
2018-08-25T21:56:35.197Z,98977.00
2018-08-25T21:58:39.341Z,98981.00
2018-08-25T22:00:50.062Z,98988.00
2018-08-25T22:02:55.021Z,98984.00
2018-08-25T22:05:00.384Z,98992.00
2018-08-25T22:07:10.969Z,98992.00
2018-08-25T22:09:18.436Z,98991.00
2018-08-25T22:11:22.103Z,98997.00
2018-08-25T22:13:26.259Z,98996.00
2018-08-25T22:15:33.687Z,98990.00
2018-08-25T22:17:37.405Z,98992.00
2018-08-25T22:19:42.499Z,98993.00
2018-08-25T22:21:46.724Z,98997.00
2018-08-25T22:23:51.281Z,98999.00
2018-08-25T22:25:55.009Z,98995.00
2018-08-25T22:27:58.979Z,98996.00
2018-08-25T22:30:03.189Z,98994.00
2018-08-25T22:32:10.948Z,98992.00
2018-08-25T22:34:15.808Z,98996.00
2018-08-25T22:36:20.967Z,98994.00
2018-08-25T22:38:26.137Z,98992.00
2018-08-25T22:40:29.897Z,98988.00
2018-08-25T22:42:33.719Z,98994.00
2018-08-25T22:44:37.954Z,99001.00
2018-08-25T22:46:41.934Z,99000.00
2018-08-25T22:48:45.486Z,99006.00
2018-08-25T22:50:49.284Z,99003.00
2018-08-25T22:52:53.628Z,99002.00
2018-08-25T22:54:57.463Z,99004.00
2018-08-25T22:57:01.409Z,99011.00
2018-08-25T22:59:05.244Z,99005.00
2018-08-25T23:01:10.559Z,99001.00
2018-08-25T23:03:18.851Z,99003.00
2018-08-25T23:05:26.416Z,99003.00
2018-08-25T23:07:30.187Z,99004.00
2018-08-25T23:09:35.385Z,99000.00
2018-08-25T23:11:40.326Z,98999.00
2018-08-25T23:13:44.386Z,99001.00
2018-08-25T23:15:48.725Z,99004.00
2018-08-25T23:17:52.470Z,99001.00
2018-08-25T23:19:56.083Z,99012.00
2018-08-25T23:22:00.114Z,99009.00
2018-08-25T23:24:05.086Z,99010.00
2018-08-25T23:26:08.972Z,99017.00
2018-08-25T23:28:14.090Z,99014.00
2018-08-25T23:30:18.730Z,99020.00
2018-08-25T23:32:26.621Z,99015.00
2018-08-25T23:34:33.619Z,99022.00
2018-08-25T23:36:37.766Z,99020.00
2018-08-25T23:38:41.448Z,99022.00
2018-08-25T23:40:45.811Z,99020.00
2018-08-25T23:42:49.343Z,99014.00
2018-08-25T23:44:53.115Z,99008.00
2018-08-25T23:46:57.219Z,99008.00
2018-08-25T23:49:01.062Z,99015.00
2018-08-25T23:51:04.915Z,99007.00
2018-08-25T23:53:08.801Z,99003.00
2018-08-25T23:55:12.502Z,99004.00
2018-08-25T23:57:16.713Z,99005.00
2018-08-25T23:59:24.410Z,99003.00
